Portada
METAR-TAF:

METAR-TAF

Aeropuertos :

Aeropuerto de Zielona Góra

Zielona Góra, Polonia

latitud: 52-08-19N, longitud: 015-47-55E, altitud: 59 m

Observación

El informe se hizo hace 4 horas y 58 minutos, a las 20:00 UTC
Viento 4 kt del sur-sureste
Temperatura 14°C
Humedad 82%
Presión 1006 hPa
Visibilidad 10 km o más
sin nubes por debajo de 1500 m y sin presencia de cumulonimbus.

METAR: EPZG 062000Z 15004KT CAVOK 14/11 Q1006

Hora: 02:58 (00:58 UTC)

Pronóstico

El informe se hizo hace 4 horas y 28 minutos, a las 20:30 UTC
Pronóstico válido del 06 a las 21 UTC al 07 a las 06 UTC
Viento 3 kt del sur-sureste
Visibilidad 10 km o más
sin nubes por debajo de 1500 m y sin presencia de cumulonimbus.

TAF: EPZG 062030Z 0621/0706 15003KT CAVOK

Observaciones y pronósticos meteorológicos de más de 4000 aeropuertos (mensajes METAR y TAF).

Los puntos amarillos y rojos representan las estaciones disponibles.

Ponga el ratón en el punto deseado para ver el nombre de la estación.

Haga clic para ver las observaciones y los pronósticos meteorológicos.

Para cambiar el mapa : haga clic en los botones verdes con una cruz de color negro para hacer un zoom, en el botón verde con un guión para alejar o en las flechas verdes para mapas adyacentes.


METAR-TAF: